Time;durP1;ratioP1;P1;durP2;ratioP2;P2;SDS_P1;SDS_P2;PMS_P1;PMS_P2;Temp;Humidity;BMP_temperature;BMP_pressure;BME280_temperature;BME280_humidity;BME280_pressure;Samples;Min_cycle;Max_cycle;Signal;HPM_P1;HPM_P2
2021/12/20 00:00:39;;;;;;;7.00;4.20;;;;;;;;;;5052728;28;20036;-37
2021/12/20 00:03:05;;;;;;;8.52;4.88;;;;;;;;;;5052232;28;20057;-37
2021/12/20 00:05:31;;;;;;;5.03;4.03;;;;;;;;;;5052753;28;20025;-38
2021/12/20 00:07:56;;;;;;;6.57;4.07;;;;;;;;;;5052529;28;20064;-37
2021/12/20 00:10:22;;;;;;;5.63;3.92;;;;;;;;;;5052710;28;20035;-37
2021/12/20 00:12:48;;;;;;;5.93;3.63;;;;;;;;;;5052299;28;20500;-37
2021/12/20 00:15:16;;;;;;;4.88;3.85;;;;;;;;;;5052552;28;20021;-37
2021/12/20 00:17:41;;;;;;;5.25;3.80;;;;;;;;;;5034377;28;20029;-37
2021/12/20 00:20:07;;;;;;;5.90;4.00;;;;;;;;;;5051994;28;20071;-37
2021/12/20 00:22:33;;;;;;;5.22;3.70;;;;;;;;;;5051188;28;20505;-37
2021/12/20 00:24:58;;;;;;;3.55;3.20;;;;;;;;;;5051427;28;20124;-37
2021/12/20 00:27:24;;;;;;;3.78;2.92;;;;;;;;;;5051795;28;20108;-37
2021/12/20 00:29:50;;;;;;;6.82;3.85;;;;;;;;;;5052521;28;20029;-38
2021/12/20 00:32:18;;;;;;;4.70;3.50;;;;;;;;;;5052585;28;20093;-37
2021/12/20 00:34:45;;;;;;;4.70;3.45;;;;;;;;;;5052047;28;20033;-37
2021/12/20 00:42:41;;;;;;;4.00;3.00;;;;;;;;;;5051614;28;20071;-37
2021/12/20 00:45:08;;;;;;;5.07;3.65;;;;;;;;;;5051942;28;20025;-37
2021/12/20 00:47:34;;;;;;;4.32;3.28;;;;;;;;;;5052427;28;20388;-38
2021/12/20 00:49:59;;;;;;;6.18;3.30;;;;;;;;;;5051997;28;20119;-37
2021/12/20 00:52:25;;;;;;;4.95;3.17;;;;;;;;;;5052327;28;20108;-37
2021/12/20 00:54:51;;;;;;;5.90;3.42;;;;;;;;;;5052094;28;20078;-37
2021/12/20 00:57:17;;;;;;;5.18;3.00;;;;;;;;;;5051911;28;20036;-38
2021/12/20 00:59:42;;;;;;;3.55;3.15;;;;;;;;;;5052213;28;20033;-38
2021/12/20 01:02:08;;;;;;;4.50;3.22;;;;;;;;;;5052358;28;20149;-38
2021/12/20 01:04:34;;;;;;;5.50;4.00;;;;;;;;;;5052226;28;20465;-37
2021/12/20 01:06:59;;;;;;;5.47;3.10;;;;;;;;;;5052257;28;20028;-38
2021/12/20 01:09:25;;;;;;;4.82;3.50;;;;;;;;;;5051825;28;20504;-37
2021/12/20 01:11:53;;;;;;;5.35;3.35;;;;;;;;;;5052144;28;20026;-37
2021/12/20 01:14:25;;;;;;;3.63;3.10;;;;;;;;;;5051633;28;20069;-38
2021/12/20 01:16:51;;;;;;;3.70;2.95;;;;;;;;;;5051741;28;20111;-38
2021/12/20 01:19:17;;;;;;;6.57;3.30;;;;;;;;;;5051730;28;20029;-37
2021/12/20 01:21:43;;;;;;;3.10;2.60;;;;;;;;;;5051834;28;20021;-37
2021/12/20 01:24:09;;;;;;;3.92;2.92;;;;;;;;;;5051769;28;20029;-37
2021/12/20 01:26:34;;;;;;;4.95;3.53;;;;;;;;;;5051840;28;20048;-37
2021/12/20 01:29:00;;;;;;;3.30;2.72;;;;;;;;;;5052011;28;20060;-38
2021/12/20 01:31:26;;;;;;;4.93;3.30;;;;;;;;;;5051728;28;20037;-37
2021/12/20 01:33:51;;;;;;;3.72;2.95;;;;;;;;;;5051828;28;20083;-38
2021/12/20 01:36:17;;;;;;;5.40;3.13;;;;;;;;;;5051724;28;20465;-38
2021/12/20 01:38:43;;;;;;;3.90;2.95;;;;;;;;;;5051806;28;20112;-37
2021/12/20 01:41:10;;;;;;;4.00;2.90;;;;;;;;;;5051598;28;20058;-38
2021/12/20 01:43:37;;;;;;;7.57;3.50;;;;;;;;;;5051669;28;20064;-38
2021/12/20 01:46:03;;;;;;;5.03;2.42;;;;;;;;;;5051900;28;20024;-37
2021/12/20 01:48:30;;;;;;;4.35;3.03;;;;;;;;;;5051584;28;20021;-37
2021/12/20 01:53:36;;;;;;;3.30;2.60;;;;;;;;;;5055183;28;20059;-38
2021/12/20 01:56:03;;;;;;;3.90;2.70;;;;;;;;;;5055324;28;20393;-38
2021/12/20 01:58:30;;;;;;;3.85;2.85;;;;;;;;;;5055195;28;20033;-37
2021/12/20 02:03:29;;;;;;;5.18;2.97;;;;;;;;;;5055430;28;20476;-38
2021/12/20 02:05:58;;;;;;;3.47;2.72;;;;;;;;;;5055027;28;20100;-38
2021/12/20 02:08:29;;;;;;;3.80;2.65;;;;;;;;;;5054839;28;20366;-38
2021/12/20 02:11:03;;;;;;;3.17;2.45;;;;;;;;;;5054880;28;20461;-39
2021/12/20 02:13:30;;;;;;;5.15;3.00;;;;;;;;;;5054757;28;20052;-38
2021/12/20 02:15:59;;;;;;;4.10;2.97;;;;;;;;;;5054470;28;20025;-38
2021/12/20 02:18:26;;;;;;;4.60;2.92;;;;;;;;;;5054710;28;20071;-37
2021/12/20 02:20:52;;;;;;;4.20;2.80;;;;;;;;;;5054826;28;20427;-38
2021/12/20 02:23:18;;;;;;;4.55;2.83;;;;;;;;;;5054706;28;20025;-38
2021/12/20 02:25:43;;;;;;;5.60;3.17;;;;;;;;;;5054801;28;20032;-38
2021/12/20 02:28:12;;;;;;;4.95;3.00;;;;;;;;;;5054789;28;20049;-38
2021/12/20 02:30:48;;;;;;;4.20;3.03;;;;;;;;;;5054672;28;20029;-38
2021/12/20 02:38:43;;;;;;;5.22;3.50;;;;;;;;;;5054584;28;20039;-38
2021/12/20 02:41:19;;;;;;;3.83;2.90;;;;;;;;;;5054567;28;20024;-38
2021/12/20 02:44:05;;;;;;;3.13;2.55;;;;;;;;;;5054220;28;20119;-37
2021/12/20 02:49:03;;;;;;;3.90;3.08;;;;;;;;;;5054449;28;20025;-38
2021/12/20 02:51:29;;;;;;;4.63;3.13;;;;;;;;;;5054041;28;20035;-39
2021/12/20 02:53:57;;;;;;;3.58;2.70;;;;;;;;;;5054136;28;20103;-38
2021/12/20 02:56:23;;;;;;;4.63;3.35;;;;;;;;;;5053871;28;20032;-39
2021/12/20 02:58:49;;;;;;;4.32;3.10;;;;;;;;;;5053926;28;20112;-38
2021/12/20 03:01:15;;;;;;;3.67;2.75;;;;;;;;;;5053605;28;20096;-38
2021/12/20 03:03:41;;;;;;;5.53;2.60;;;;;;;;;;5054144;28;20128;-38
2021/12/20 03:06:36;;;;;;;4.28;2.58;;;;;;;;;;5054009;28;20013;-38
2021/12/20 03:09:04;;;;;;;3.97;2.78;;;;;;;;;;5053145;28;20037;-38
2021/12/20 03:11:29;;;;;;;3.63;2.65;;;;;;;;;;5053477;28;20025;-38
2021/12/20 03:14:07;;;;;;;5.78;3.20;;;;;;;;;;5053389;28;20103;-38
2021/12/20 03:16:34;;;;;;;4.50;2.80;;;;;;;;;;5053508;28;20564;-38
2021/12/20 03:19:00;;;;;;;4.35;3.22;;;;;;;;;;5053566;28;20024;-38
2021/12/20 03:21:26;;;;;;;4.18;2.83;;;;;;;;;;5053344;28;20033;-38
2021/12/20 03:23:51;;;;;;;4.72;3.47;;;;;;;;;;5053717;28;20032;-38
2021/12/20 03:26:17;;;;;;;5.03;3.45;;;;;;;;;;5053321;28;20021;-38
2021/12/20 03:28:42;;;;;;;4.90;3.05;;;;;;;;;;5053396;28;20021;-38
2021/12/20 03:31:08;;;;;;;4.88;3.45;;;;;;;;;;5053341;28;20100;-38
2021/12/20 03:33:33;;;;;;;5.55;3.70;;;;;;;;;;5053246;28;20446;-38
2021/12/20 03:35:59;;;;;;;6.32;3.63;;;;;;;;;;5053448;28;20025;-38
2021/12/20 03:38:25;;;;;;;9.25;3.72;;;;;;;;;;5053350;28;20358;-38
2021/12/20 03:40:50;;;;;;;5.25;3.40;;;;;;;;;;5053395;28;20423;-39
2021/12/20 03:43:17;;;;;;;6.53;3.97;;;;;;;;;;5053131;28;20047;-38
2021/12/20 03:45:45;;;;;;;5.18;3.53;;;;;;;;;;5052844;28;20040;-38
2021/12/20 03:48:10;;;;;;;8.23;4.07;;;;;;;;;;5053247;28;20033;-37
2021/12/20 03:50:36;;;;;;;7.05;3.97;;;;;;;;;;5035476;28;20541;-38
2021/12/20 03:53:01;;;;;;;4.75;3.15;;;;;;;;;;5052433;28;20033;-37
2021/12/20 03:55:27;;;;;;;7.75;3.33;;;;;;;;;;5052822;28;20104;-38
2021/12/20 03:57:52;;;;;;;4.85;3.45;;;;;;;;;;5052911;28;20025;-37
2021/12/20 04:00:18;;;;;;;5.15;3.20;;;;;;;;;;5052778;28;20021;-38
2021/12/20 04:02:46;;;;;;;4.85;3.33;;;;;;;;;;5052947;28;20033;-38
2021/12/20 04:05:13;;;;;;;5.45;3.30;;;;;;;;;;5052692;28;20381;-37
2021/12/20 04:07:39;;;;;;;4.05;3.38;;;;;;;;;;5052719;28;20036;-37
2021/12/20 04:10:06;;;;;;;5.28;3.00;;;;;;;;;;5052849;28;20029;-37
2021/12/20 04:12:32;;;;;;;6.68;3.40;;;;;;;;;;5051826;28;20021;-37
2021/12/20 04:14:57;;;;;;;4.28;2.95;;;;;;;;;;5052809;28;20021;-37
2021/12/20 04:17:23;;;;;;;4.38;3.00;;;;;;;;;;5052663;28;20354;-37
2021/12/20 04:19:48;;;;;;;4.30;3.30;;;;;;;;;;5052393;28;20535;-38
2021/12/20 04:22:19;;;;;;;6.80;3.35;;;;;;;;;;5052582;28;20064;-37
2021/12/20 04:24:45;;;;;;;6.50;4.07;;;;;;;;;;5052374;28;20024;-38
2021/12/20 04:27:11;;;;;;;7.03;3.53;;;;;;;;;;5052388;28;20029;-38
2021/12/20 04:29:37;;;;;;;6.85;3.72;;;;;;;;;;5052282;28;20111;-38
2021/12/20 04:32:03;;;;;;;6.10;3.10;;;;;;;;;;5052335;28;20112;-37
2021/12/20 04:34:29;;;;;;;4.85;3.10;;;;;;;;;;5052229;28;20474;-38
2021/12/20 04:36:55;;;;;;;2.92;2.22;;;;;;;;;;5052425;28;20033;-37
2021/12/20 04:39:25;;;;;;;2.97;1.88;;;;;;;;;;5052410;28;20527;-37
2021/12/20 04:41:50;;;;;;;3.28;2.05;;;;;;;;;;5052160;28;20469;-38
2021/12/20 04:44:16;;;;;;;2.15;1.90;;;;;;;;;;5052188;28;20091;-38
2021/12/20 04:46:41;;;;;;;2.28;1.90;;;;;;;;;;5052566;28;20086;-38
2021/12/20 04:49:07;;;;;;;3.08;2.00;;;;;;;;;;5051972;28;20036;-38
2021/12/20 04:51:32;;;;;;;8.43;2.03;;;;;;;;;;5052257;28;20057;-37
2021/12/20 04:53:58;;;;;;;2.95;1.90;;;;;;;;;;5052123;28;20017;-37
2021/12/20 04:56:23;;;;;;;3.33;1.92;;;;;;;;;;5052223;28;20032;-38
2021/12/20 04:58:49;;;;;;;3.25;1.88;;;;;;;;;;5052336;28;20530;-37
2021/12/20 05:01:15;;;;;;;2.40;1.92;;;;;;;;;;5052214;28;20025;-37
2021/12/20 05:03:40;;;;;;;4.75;2.80;;;;;;;;;;5051978;28;20044;-37
2021/12/20 05:06:06;;;;;;;3.72;2.25;;;;;;;;;;5052017;28;20033;-37
2021/12/20 05:08:45;;;;;;;2.90;2.38;;;;;;;;;;5052036;28;20025;-38
2021/12/20 05:11:11;;;;;;;3.22;2.38;;;;;;;;;;5052018;28;20098;-37
2021/12/20 05:13:36;;;;;;;2.78;2.30;;;;;;;;;;5051405;28;20509;-37
2021/12/20 05:16:02;;;;;;;4.22;2.72;;;;;;;;;;5051667;28;20068;-38
2021/12/20 05:18:27;;;;;;;3.95;2.28;;;;;;;;;;5051715;28;20033;-37
2021/12/20 05:20:53;;;;;;;7.18;2.70;;;;;;;;;;5052150;28;20033;-37
2021/12/20 05:23:18;;;;;;;5.47;2.40;;;;;;;;;;5051722;28;20029;-37
2021/12/20 05:25:44;;;;;;;5.20;2.78;;;;;;;;;;5053165;28;20035;-37
2021/12/20 05:28:09;;;;;;;5.30;2.60;;;;;;;;;;5055875;28;20086;-37
2021/12/20 05:30:36;;;;;;;4.00;2.53;;;;;;;;;;5055618;28;20017;-38
2021/12/20 05:33:02;;;;;;;4.85;2.90;;;;;;;;;;5055558;28;20074;-37
2021/12/20 05:35:28;;;;;;;6.47;3.28;;;;;;;;;;5055756;28;20033;-37
2021/12/20 05:37:53;;;;;;;4.80;2.67;;;;;;;;;;5055034;28;20385;-38
2021/12/20 05:40:20;;;;;;;7.90;3.50;;;;;;;;;;5055439;28;20146;-37
2021/12/20 05:42:46;;;;;;;4.75;2.85;;;;;;;;;;5055305;28;20074;-37
2021/12/20 05:45:13;;;;;;;7.03;3.55;;;;;;;;;;5055330;28;20106;-37
2021/12/20 05:47:39;;;;;;;5.65;2.80;;;;;;;;;;5055494;28;20108;-37
2021/12/20 05:50:06;;;;;;;3.22;2.45;;;;;;;;;;5055240;28;20672;-38
2021/12/20 05:52:31;;;;;;;3.67;2.70;;;;;;;;;;5055121;28;20083;-38
2021/12/20 05:54:57;;;;;;;4.45;3.05;;;;;;;;;;5055191;28;20025;-37
2021/12/20 05:57:22;;;;;;;6.15;3.25;;;;;;;;;;5055210;28;20132;-37
2021/12/20 05:59:48;;;;;;;5.38;3.72;;;;;;;;;;5037279;28;20393;-38
2021/12/20 06:02:14;;;;;;;8.85;3.83;;;;;;;;;;5055215;28;20059;-37
2021/12/20 06:04:39;;;;;;;7.22;3.78;;;;;;;;;;5055197;28;20392;-37
2021/12/20 06:07:05;;;;;;;6.32;3.90;;;;;;;;;;5054865;28;20465;-37
2021/12/20 06:09:31;;;;;;;8.85;4.32;;;;;;;;;;5054829;28;20520;-37
2021/12/20 06:11:59;;;;;;;7.57;4.47;;;;;;;;;;5054781;28;20481;-37
2021/12/20 06:14:28;;;;;;;7.70;4.53;;;;;;;;;;5054631;28;20049;-37
2021/12/20 06:16:57;;;;;;;4.38;3.58;;;;;;;;;;5054867;28;20037;-37
2021/12/20 06:19:24;;;;;;;4.63;3.33;;;;;;;;;;5054958;28;20036;-37
2021/12/20 06:21:50;;;;;;;6.38;3.90;;;;;;;;;;5054558;28;20041;-37
2021/12/20 06:24:16;;;;;;;15.82;4.25;;;;;;;;;;5036760;28;20021;-37
2021/12/20 06:26:41;;;;;;;4.50;3.70;;;;;;;;;;5054808;28;20025;-37
2021/12/20 06:29:07;;;;;;;6.28;4.72;;;;;;;;;;5054441;28;20040;-37
2021/12/20 06:31:32;;;;;;;7.22;4.10;;;;;;;;;;5054417;28;20036;-37
2021/12/20 06:33:58;;;;;;;7.63;3.97;;;;;;;;;;5054690;28;20461;-38
2021/12/20 06:36:26;;;;;;;6.32;3.50;;;;;;;;;;5054111;28;20362;-37
2021/12/20 06:38:54;;;;;;;8.52;3.78;;;;;;;;;;5054551;28;20025;-37
2021/12/20 06:41:20;;;;;;;8.02;4.45;;;;;;;;;;5054752;28;20035;-38
2021/12/20 06:43:46;;;;;;;7.15;4.07;;;;;;;;;;5054715;28;20396;-38
2021/12/20 06:46:14;;;;;;;9.45;3.95;;;;;;;;;;5051194;28;20495;-38
2021/12/20 06:48:39;;;;;;;8.25;3.65;;;;;;;;;;5054315;28;20063;-37
2021/12/20 06:51:05;;;;;;;5.35;3.47;;;;;;;;;;5054292;28;20057;-37
2021/12/20 06:53:31;;;;;;;6.97;4.25;;;;;;;;;;5054785;28;20075;-37
2021/12/20 06:55:56;;;;;;;6.78;4.03;;;;;;;;;;5054389;28;20435;-37
2021/12/20 06:58:23;;;;;;;6.93;3.67;;;;;;;;;;5054427;28;20076;-37
2021/12/20 07:00:51;;;;;;;7.90;4.35;;;;;;;;;;5054347;28;20031;-38
2021/12/20 07:03:16;;;;;;;6.35;3.28;;;;;;;;;;5052865;28;20157;-37
2021/12/20 07:05:42;;;;;;;5.18;3.38;;;;;;;;;;5054113;28;20033;-37
2021/12/20 07:08:08;;;;;;;5.63;3.33;;;;;;;;;;5054473;28;20037;-37
2021/12/20 07:10:33;;;;;;;6.30;3.95;;;;;;;;;;5054484;28;20036;-37
2021/12/20 07:12:59;;;;;;;7.80;3.85;;;;;;;;;;5053729;28;20095;-37
2021/12/20 07:15:25;;;;;;;12.60;3.85;;;;;;;;;;5053999;28;20108;-37
2021/12/20 07:17:51;;;;;;;15.90;5.70;;;;;;;;;;5053572;28;20036;-37
2021/12/20 07:20:18;;;;;;;16.85;9.68;;;;;;;;;;5053928;28;20017;-38
2021/12/20 07:22:44;;;;;;;13.95;7.90;;;;;;;;;;5053376;28;20064;-38
2021/12/20 07:25:10;;;;;;;8.35;4.82;;;;;;;;;;5053479;28;20063;-38
2021/12/20 07:27:35;;;;;;;8.32;3.97;;;;;;;;;;5053650;28;20100;-38
2021/12/20 07:30:03;;;;;;;8.52;4.70;;;;;;;;;;5053657;28;20507;-38
2021/12/20 07:32:29;;;;;;;8.60;4.70;;;;;;;;;;5053261;28;20048;-38
2021/12/20 07:34:54;;;;;;;11.05;5.90;;;;;;;;;;5053332;28;20487;-38
2021/12/20 07:37:21;;;;;;;9.95;4.55;;;;;;;;;;5035699;28;20036;-38
2021/12/20 07:39:46;;;;;;;13.18;4.30;;;;;;;;;;5053509;28;20039;-38
2021/12/20 07:42:12;;;;;;;6.05;4.43;;;;;;;;;;5053163;28;20017;-38
2021/12/20 07:44:38;;;;;;;7.93;4.30;;;;;;;;;;5053210;28;20032;-38
2021/12/20 07:47:03;;;;;;;10.05;4.88;;;;;;;;;;5052636;28;20056;-38
2021/12/20 07:49:29;;;;;;;8.70;4.70;;;;;;;;;;5052886;28;20365;-38
2021/12/20 07:51:55;;;;;;;14.05;4.55;;;;;;;;;;5053067;28;20025;-38
2021/12/20 07:54:20;;;;;;;10.70;4.18;;;;;;;;;;5053106;28;20052;-38
2021/12/20 07:56:46;;;;;;;11.90;4.10;;;;;;;;;;5052810;28;20033;-38
2021/12/20 07:59:12;;;;;;;9.80;4.32;;;;;;;;;;5053268;28;20025;-38
2021/12/20 08:01:37;;;;;;;6.35;3.42;;;;;;;;;;5052634;28;20021;-38
2021/12/20 08:04:04;;;;;;;5.63;3.47;;;;;;;;;;5052366;28;20032;-38
2021/12/20 08:06:30;;;;;;;6.70;3.60;;;;;;;;;;5052955;28;20136;-38
2021/12/20 08:08:55;;;;;;;6.97;4.10;;;;;;;;;;5034674;28;20522;-38
2021/12/20 08:11:21;;;;;;;7.45;3.97;;;;;;;;;;5052329;28;20132;-38
2021/12/20 08:13:46;;;;;;;7.22;3.50;;;;;;;;;;5052255;28;20092;-38
2021/12/20 08:16:16;;;;;;;5.65;3.60;;;;;;;;;;5052706;28;20025;-38
2021/12/20 08:18:43;;;;;;;7.60;3.72;;;;;;;;;;5052691;28;20024;-38
2021/12/20 08:21:09;;;;;;;8.77;4.20;;;;;;;;;;5052421;28;20033;-38
2021/12/20 08:23:35;;;;;;;4.65;3.20;;;;;;;;;;5052568;28;20024;-38
2021/12/20 08:26:01;;;;;;;6.32;3.22;;;;;;;;;;5052208;28;20028;-38
2021/12/20 08:28:28;;;;;;;6.85;3.30;;;;;;;;;;5052317;28;20025;-38
2021/12/20 08:30:53;;;;;;;5.05;3.35;;;;;;;;;;5052483;28;20070;-38
2021/12/20 08:33:19;;;;;;;11.23;5.90;;;;;;;;;;5052558;28;20029;-38
2021/12/20 08:35:49;;;;;;;11.32;5.43;;;;;;;;;;5052516;28;20432;-38
2021/12/20 08:38:18;;;;;;;7.70;5.05;;;;;;;;;;5052401;28;20040;-38
2021/12/20 08:40:44;;;;;;;14.52;6.53;;;;;;;;;;5052128;28;20036;-39
2021/12/20 08:43:09;;;;;;;9.98;5.45;;;;;;;;;;5052444;28;20029;-38
2021/12/20 08:45:36;;;;;;;12.25;4.07;;;;;;;;;;5051887;28;20617;-39
2021/12/20 08:48:02;;;;;;;7.47;3.67;;;;;;;;;;5052129;28;20028;-36
2021/12/20 08:50:27;;;;;;;7.72;3.70;;;;;;;;;;5052107;28;20028;-38
2021/12/20 08:52:53;;;;;;;7.45;3.80;;;;;;;;;;5052423;28;20028;-38
2021/12/20 08:55:20;;;;;;;5.35;3.45;;;;;;;;;;5052149;28;20025;-38
2021/12/20 08:57:46;;;;;;;6.43;3.00;;;;;;;;;;5052555;28;20532;-38
2021/12/20 09:00:19;;;;;;;6.40;3.50;;;;;;;;;;5055918;28;20063;-38
2021/12/20 09:02:44;;;;;;;5.47;3.13;;;;;;;;;;5056182;28;20037;-38
2021/12/20 09:05:10;;;;;;;5.95;2.80;;;;;;;;;;5056024;28;20112;-38
2021/12/20 09:07:36;;;;;;;4.68;2.97;;;;;;;;;;5055926;28;20099;-38
2021/12/20 09:10:04;;;;;;;7.03;3.28;;;;;;;;;;5055963;28;20479;-38
2021/12/20 09:12:29;;;;;;;5.28;3.10;;;;;;;;;;5055638;28;20025;-38
2021/12/20 09:14:55;;;;;;;7.38;3.40;;;;;;;;;;5056201;28;20044;-37
2021/12/20 09:17:20;;;;;;;6.57;3.22;;;;;;;;;;5055990;28;20060;-37
2021/12/20 09:19:46;;;;;;;3.90;3.10;;;;;;;;;;5055633;28;20029;-37
2021/12/20 09:22:12;;;;;;;6.32;3.25;;;;;;;;;;5055383;28;20117;-37
2021/12/20 09:24:39;;;;;;;7.28;2.97;;;;;;;;;;5053297;28;20585;-37
2021/12/20 09:27:06;;;;;;;6.85;2.80;;;;;;;;;;5052109;28;20028;-38
2021/12/20 09:29:31;;;;;;;5.03;2.92;;;;;;;;;;5053285;28;20036;-37
2021/12/20 09:31:58;;;;;;;8.75;3.83;;;;;;;;;;5055370;28;20385;-37
2021/12/20 09:34:24;;;;;;;7.70;3.33;;;;;;;;;;5055113;28;20476;-37
2021/12/20 09:36:50;;;;;;;6.30;4.00;;;;;;;;;;5055089;28;20124;-37
2021/12/20 09:39:17;;;;;;;9.90;4.57;;;;;;;;;;5054662;28;20052;-37
2021/12/20 09:44:10;;;;;;;7.00;3.20;;;;;;;;;;5055624;28;20041;-36
2021/12/20 09:46:36;;;;;;;7.47;3.38;;;;;;;;;;5052340;28;20040;-37
2021/12/20 09:49:03;;;;;;;5.32;2.92;;;;;;;;;;5054841;28;20029;-36
2021/12/20 09:51:28;;;;;;;8.82;3.10;;;;;;;;;;5055089;28;20064;-37
2021/12/20 09:53:55;;;;;;;11.57;4.30;;;;;;;;;;5055463;28;20056;-37
2021/12/20 09:56:23;;;;;;;15.60;4.70;;;;;;;;;;5055212;28;20021;-37
2021/12/20 09:58:52;;;;;;;9.32;3.38;;;;;;;;;;5053915;28;20075;-38
2021/12/20 10:01:20;;;;;;;5.05;2.92;;;;;;;;;;5053237;28;20033;-38
2021/12/20 10:03:46;;;;;;;6.70;3.28;;;;;;;;;;5052995;28;20447;-37
2021/12/20 10:06:11;;;;;;;7.28;3.85;;;;;;;;;;5035390;28;20025;-39
2021/12/20 10:08:48;;;;;;;5.75;3.20;;;;;;;;;;5053345;28;20040;-40
2021/12/20 10:11:25;;;;;;;12.25;2.85;;;;;;;;;;5052468;28;20029;-40
2021/12/20 10:14:16;;;;;;;6.03;2.90;;;;;;;;;;5053095;28;20049;-40
2021/12/20 10:16:43;;;;;;;10.90;3.25;;;;;;;;;;5053006;28;20056;-38
2021/12/20 10:19:32;;;;;;;6.68;2.90;;;;;;;;;;5053140;28;20029;-37
2021/12/20 10:21:59;;;;;;;6.70;2.75;;;;;;;;;;5053182;28;20033;-36
2021/12/20 10:24:34;;;;;;;14.38;3.50;;;;;;;;;;5053102;28;20096;-36
2021/12/20 10:27:00;;;;;;;6.28;2.45;;;;;;;;;;5035088;28;20087;-37
2021/12/20 10:29:26;;;;;;;5.10;3.20;;;;;;;;;;5052217;28;20033;-37
2021/12/20 10:31:52;;;;;;;4.93;3.08;;;;;;;;;;5052762;28;20033;-39
2021/12/20 10:34:19;;;;;;;4.20;2.25;;;;;;;;;;5052995;28;20433;-37
2021/12/20 10:36:56;;;;;;;5.20;2.90;;;;;;;;;;5053086;28;20408;-36
2021/12/20 10:39:41;;;;;;;9.90;3.03;;;;;;;;;;5051243;28;20025;-37
2021/12/20 10:42:27;;;;;;;4.97;2.90;;;;;;;;;;5052846;28;20400;-36
2021/12/20 10:45:26;;;;;;;5.15;2.88;;;;;;;;;;5052629;28;20021;-38
2021/12/20 10:47:51;;;;;;;5.85;2.75;;;;;;;;;;5008358;28;20095;-37
2021/12/20 10:50:28;;;;;;;7.90;3.53;;;;;;;;;;5052728;28;20021;-36
2021/12/20 10:53:11;;;;;;;3.83;3.25;;;;;;;;;;5034477;28;20033;-37
2021/12/20 10:55:42;;;;;;;7.95;2.45;;;;;;;;;;5052709;28;20045;-37
2021/12/20 10:58:29;;;;;;;7.53;3.28;;;;;;;;;;5052255;28;20029;-37
2021/12/20 11:01:13;;;;;;;12.00;3.17;;;;;;;;;;5052335;28;20079;-38
2021/12/20 11:03:41;;;;;;;4.97;2.58;;;;;;;;;;5052240;28;20029;-38
2021/12/20 11:11:30;;;;;;;6.80;2.60;;;;;;;;;;5052405;28;20083;-36
2021/12/20 11:13:58;;;;;;;3.22;2.08;;;;;;;;;;5051926;28;20069;-38
2021/12/20 11:16:33;;;;;;;9.70;2.20;;;;;;;;;;5052201;28;20025;-37
2021/12/20 11:19:26;;;;;;;2.85;2.10;;;;;;;;;;5051872;28;20017;-37
2021/12/20 11:21:55;;;;;;;6.93;1.98;;;;;;;;;;5052202;28;20033;-38
2021/12/20 11:24:43;;;;;;;4.35;2.20;;;;;;;;;;5052094;28;20043;-38
2021/12/20 11:27:37;;;;;;;3.30;1.70;;;;;;;;;;5051124;28;20040;-39
2021/12/20 11:30:10;;;;;;;2.75;1.92;;;;;;;;;;5051360;28;20489;-37
2021/12/20 11:32:37;;;;;;;5.78;2.22;;;;;;;;;;5051691;28;20108;-37
2021/12/20 11:35:04;;;;;;;5.25;2.08;;;;;;;;;;5051943;28;20028;-39
2021/12/20 11:37:29;;;;;;;6.15;1.90;;;;;;;;;;5051777;28;20033;-39
2021/12/20 11:39:57;;;;;;;5.68;1.85;;;;;;;;;;5051925;28;20202;-38
2021/12/20 11:42:23;;;;;;;5.90;1.60;;;;;;;;;;5051526;28;20028;-39
2021/12/20 11:44:54;;;;;;;3.28;2.05;;;;;;;;;;5051825;28;20037;-38
2021/12/20 11:47:32;;;;;;;2.15;1.50;;;;;;;;;;5051611;28;20025;-38
2021/12/20 11:50:02;;;;;;;3.55;2.20;;;;;;;;;;5051599;28;20035;-38
2021/12/20 11:52:42;;;;;;;8.32;3.15;;;;;;;;;;5051551;28;20040;-39
2021/12/20 11:55:27;;;;;;;5.00;2.03;;;;;;;;;;5051248;28;20481;-38
2021/12/20 11:57:58;;;;;;;10.45;2.60;;;;;;;;;;5051413;28;20119;-38
2021/12/20 12:00:34;;;;;;;4.22;2.17;;;;;;;;;;5051570;28;20102;-38
2021/12/20 12:03:15;;;;;;;1.95;1.75;;;;;;;;;;5051301;28;20104;-39
2021/12/20 12:05:40;;;;;;;;;;;;;;;;;;5051695;28;20033;-40
2021/12/20 12:08:24;;;;;;;8.30;3.33;;;;;;;;;;5049690;28;19921;-39
2021/12/20 12:10:52;;;;;;;5.47;1.80;;;;;;;;;;5051332;28;20362;-39
2021/12/20 12:13:19;;;;;;;6.93;2.78;;;;;;;;;;5051046;28;20124;-39
2021/12/20 12:16:02;;;;;;;6.63;3.40;;;;;;;;;;5050870;28;20473;-39
2021/12/20 12:18:46;;;;;;;11.75;5.10;;;;;;;;;;5050926;28;20623;-39
2021/12/20 12:21:35;;;;;;;9.05;4.72;;;;;;;;;;5050823;28;20063;-40
2021/12/20 12:24:02;;;;;;;10.65;6.53;;;;;;;;;;5050675;28;20037;-38
2021/12/20 12:26:37;;;;;;;13.25;5.10;;;;;;;;;;5050970;28;20522;-39
2021/12/20 12:29:04;;;;;;;8.63;4.28;;;;;;;;;;5051044;28;20021;-39
2021/12/20 12:31:48;;;;;;;9.38;3.80;;;;;;;;;;5050387;28;20083;-39
2021/12/20 12:34:15;;;;;;;4.85;2.65;;;;;;;;;;5050367;28;20044;-39
2021/12/20 12:36:42;;;;;;;10.23;1.95;;;;;;;;;;5050791;28;20028;-39
2021/12/20 12:39:23;;;;;;;3.13;2.15;;;;;;;;;;5050642;28;20108;-39
2021/12/20 12:41:54;;;;;;;7.75;2.88;;;;;;;;;;5050842;28;20111;-40
2021/12/20 12:44:22;;;;;;;6.85;1.85;;;;;;;;;;5050629;28;20029;-38
2021/12/20 12:47:12;;;;;;;3.72;2.10;;;;;;;;;;5050378;28;20041;-39
2021/12/20 12:49:48;;;;;;;;;;;;;;;;;;5051277;28;20029;-40
2021/12/20 12:52:17;;;;;;;3.83;1.73;;;;;;;;;;5032423;28;19913;-39
2021/12/20 12:54:52;;;;;;;5.80;2.60;;;;;;;;;;5050595;28;20025;-38
2021/12/20 12:57:17;;;;;;;4.50;2.47;;;;;;;;;;5050426;28;20106;-38
2021/12/20 12:59:49;;;;;;;6.50;2.78;;;;;;;;;;5050368;28;20033;-39
2021/12/20 13:02:24;;;;;;;4.07;2.47;;;;;;;;;;5050592;28;20436;-38
2021/12/20 13:05:14;;;;;;;5.90;2.70;;;;;;;;;;5050642;28;20017;-38
2021/12/20 13:07:43;;;;;;;3.58;2.33;;;;;;;;;;5050626;28;20429;-38
2021/12/20 13:10:17;;;;;;;7.85;3.03;;;;;;;;;;5050223;28;20025;-39
2021/12/20 13:17:50;;;;;;;4.55;2.45;;;;;;;;;;5050643;28;20106;-39
2021/12/20 13:23:08;;;;;;;4.22;2.80;;;;;;;;;;5050578;28;20036;-38
2021/12/20 13:25:38;;;;;;;7.82;2.42;;;;;;;;;;5050005;28;20531;-39
2021/12/20 13:28:05;;;;;;;;;;;;;;;;;;5050620;28;20048;-39
2021/12/20 13:30:43;;;;;;;4.75;2.47;;;;;;;;;;5050358;28;20008;-39
2021/12/20 13:33:10;;;;;;;7.60;3.33;;;;;;;;;;5050845;28;20029;-40
2021/12/20 13:35:37;;;;;;;5.95;3.22;;;;;;;;;;5051384;28;20514;-39
2021/12/20 13:38:22;;;;;;;6.95;3.35;;;;;;;;;;5051450;28;20102;-41
2021/12/20 13:40:58;;;;;;;7.13;3.17;;;;;;;;;;5050458;28;20104;-39
2021/12/20 13:43:32;;;;;;;4.40;2.78;;;;;;;;;;5048139;28;20039;-39
2021/12/20 13:46:11;;;;;;;6.72;2.85;;;;;;;;;;5052348;28;20469;-39
2021/12/20 13:48:49;;;;;;;4.63;2.60;;;;;;;;;;5053659;28;20040;-38
2021/12/20 13:51:16;;;;;;;9.05;3.17;;;;;;;;;;5053925;28;20033;-39
2021/12/20 13:53:42;;;;;;;10.50;3.35;;;;;;;;;;5053847;28;20033;-39
2021/12/20 13:56:08;;;;;;;6.22;3.00;;;;;;;;;;5053773;28;20435;-40
2021/12/20 13:58:34;;;;;;;8.55;3.25;;;;;;;;;;5053609;28;20037;-38
2021/12/20 14:01:00;;;;;;;7.80;3.08;;;;;;;;;;5053616;28;20028;-43
2021/12/20 14:03:26;;;;;;;7.03;3.58;;;;;;;;;;5053779;28;20021;-38
2021/12/20 14:05:52;;;;;;;6.88;3.17;;;;;;;;;;5053915;28;20108;-39
2021/12/20 14:08:23;;;;;;;4.53;2.78;;;;;;;;;;5052541;28;20112;-39
2021/12/20 14:10:50;;;;;;;12.48;2.80;;;;;;;;;;5053203;28;20028;-39
2021/12/20 14:13:29;;;;;;;4.32;2.35;;;;;;;;;;5053148;28;20045;-39
2021/12/20 14:16:01;;;;;;;3.55;2.28;;;;;;;;;;5053401;28;20025;-38
2021/12/20 14:18:37;;;;;;;6.30;3.45;;;;;;;;;;5052315;28;20665;-38
2021/12/20 14:21:09;;;;;;;10.32;3.75;;;;;;;;;;5053245;28;20064;-37
2021/12/20 14:23:48;;;;;;;6.25;2.22;;;;;;;;;;5053086;28;20090;-38
2021/12/20 14:26:37;;;;;;;5.70;3.00;;;;;;;;;;5052853;28;20119;-37
2021/12/20 14:29:06;;;;;;;7.18;3.83;;;;;;;;;;5053629;28;20602;-36
2021/12/20 14:31:38;;;;;;;6.97;3.63;;;;;;;;;;5053073;28;20111;-37
2021/12/20 14:34:10;;;;;;;8.95;5.10;;;;;;;;;;5053113;28;20115;-39
2021/12/20 14:36:40;;;;;;;6.50;3.38;;;;;;;;;;5051844;28;20422;-38
2021/12/20 14:39:18;;;;;;;8.98;3.70;;;;;;;;;;5052995;28;20037;-37
2021/12/20 14:41:50;;;;;;;9.88;4.60;;;;;;;;;;5052998;28;20060;-37
2021/12/20 14:44:24;;;;;;;7.93;3.20;;;;;;;;;;5052981;28;20095;-36
2021/12/20 14:47:03;;;;;;;5.35;3.10;;;;;;;;;;5052899;28;20029;-38
2021/12/20 14:49:44;;;;;;;9.57;6.28;;;;;;;;;;5036143;28;20083;-37
2021/12/20 14:52:11;;;;;;;7.55;5.60;;;;;;;;;;5052833;28;20029;-38
2021/12/20 14:54:48;;;;;;;9.60;4.70;;;;;;;;;;5053053;28;20021;-38
2021/12/20 14:57:17;;;;;;;8.60;4.47;;;;;;;;;;5052213;28;20086;-39
2021/12/20 14:59:47;;;;;;;9.05;3.47;;;;;;;;;;5052730;28;20025;-38
2021/12/20 15:02:14;;;;;;;8.05;4.00;;;;;;;;;;5052662;28;20033;-38
2021/12/20 15:04:41;;;;;;;13.13;4.80;;;;;;;;;;5052599;28;20446;-38
2021/12/20 15:07:07;;;;;;;12.32;4.25;;;;;;;;;;5052000;28;20056;-40
2021/12/20 15:09:33;;;;;;;16.38;5.03;;;;;;;;;;5052312;28;20021;-38
2021/12/20 15:11:59;;;;;;;9.38;4.18;;;;;;;;;;5052276;28;20029;-38
2021/12/20 15:14:25;;;;;;;10.93;6.80;;;;;;;;;;5051773;28;20057;-38
2021/12/20 15:16:55;;;;;;;6.82;3.92;;;;;;;;;;5052166;28;20667;-38
2021/12/20 15:19:21;;;;;;;5.07;2.97;;;;;;;;;;5051797;28;20773;-38
2021/12/20 15:21:47;;;;;;;13.00;5.50;;;;;;;;;;5051290;28;20034;-38
2021/12/20 15:24:12;;;;;;;10.35;5.72;;;;;;;;;;5051961;28;20440;-38
2021/12/20 15:26:38;;;;;;;10.38;5.07;;;;;;;;;;5050968;28;20025;-39